sensor_id;sensor_type;location;lat;lon;timestamp;P1;durP1;ratioP1;P2;durP2;ratioP2
68315;SDS011;55508;54.368;18.406;2022-11-20T00:00:19;66.22;;;35.78;;
68315;SDS011;55508;54.368;18.406;2022-11-20T00:02:46;66.05;;;35.28;;
68315;SDS011;55508;54.368;18.406;2022-11-20T00:05:13;65.95;;;35.67;;
68315;SDS011;55508;54.368;18.406;2022-11-20T00:07:40;68.90;;;35.60;;
68315;SDS011;55508;54.368;18.406;2022-11-20T00:10:08;69.38;;;36.20;;
68315;SDS011;55508;54.368;18.406;2022-11-20T00:12:35;71.32;;;36.58;;
68315;SDS011;55508;54.368;18.406;2022-11-20T00:15:02;72.97;;;36.92;;
68315;SDS011;55508;54.368;18.406;2022-11-20T00:17:30;69.05;;;36.00;;
68315;SDS011;55508;54.368;18.406;2022-11-20T00:19:57;74.60;;;37.33;;
68315;SDS011;55508;54.368;18.406;2022-11-20T00:22:24;69.80;;;37.17;;
68315;SDS011;55508;54.368;18.406;2022-11-20T00:24:51;77.55;;;37.60;;
68315;SDS011;55508;54.368;18.406;2022-11-20T00:27:18;69.43;;;35.78;;
68315;SDS011;55508;54.368;18.406;2022-11-20T00:29:45;73.70;;;37.50;;
68315;SDS011;55508;54.368;18.406;2022-11-20T00:32:13;60.47;;;30.58;;
68315;SDS011;55508;54.368;18.406;2022-11-20T00:34:40;72.13;;;36.08;;
68315;SDS011;55508;54.368;18.406;2022-11-20T00:37:07;62.78;;;34.28;;
68315;SDS011;55508;54.368;18.406;2022-11-20T00:39:34;64.55;;;34.08;;
68315;SDS011;55508;54.368;18.406;2022-11-20T00:42:01;62.05;;;33.35;;
68315;SDS011;55508;54.368;18.406;2022-11-20T00:44:27;60.00;;;32.42;;
68315;SDS011;55508;54.368;18.406;2022-11-20T00:46:54;60.88;;;32.00;;
68315;SDS011;55508;54.368;18.406;2022-11-20T00:49:21;60.38;;;32.35;;
68315;SDS011;55508;54.368;18.406;2022-11-20T00:51:49;60.75;;;32.17;;
68315;SDS011;55508;54.368;18.406;2022-11-20T00:54:16;65.90;;;33.95;;
68315;SDS011;55508;54.368;18.406;2022-11-20T00:56:43;61.38;;;33.22;;
68315;SDS011;55508;54.368;18.406;2022-11-20T00:59:10;60.75;;;32.05;;
68315;SDS011;55508;54.368;18.406;2022-11-20T01:01:38;58.85;;;30.92;;
68315;SDS011;55508;54.368;18.406;2022-11-20T01:04:05;53.28;;;29.83;;
68315;SDS011;55508;54.368;18.406;2022-11-20T01:06:32;50.60;;;28.35;;
68315;SDS011;55508;54.368;18.406;2022-11-20T01:09:08;50.22;;;28.85;;
68315;SDS011;55508;54.368;18.406;2022-11-20T01:11:38;53.85;;;29.08;;
68315;SDS011;55508;54.368;18.406;2022-11-20T01:14:09;48.13;;;27.52;;
68315;SDS011;55508;54.368;18.406;2022-11-20T01:16:38;49.40;;;27.50;;
68315;SDS011;55508;54.368;18.406;2022-11-20T01:19:09;47.90;;;26.40;;
68315;SDS011;55508;54.368;18.406;2022-11-20T01:21:44;47.08;;;26.70;;
68315;SDS011;55508;54.368;18.406;2022-11-20T01:24:12;44.67;;;26.92;;
68315;SDS011;55508;54.368;18.406;2022-11-20T01:26:41;48.95;;;27.58;;
68315;SDS011;55508;54.368;18.406;2022-11-20T01:31:40;43.33;;;27.87;;
68315;SDS011;55508;54.368;18.406;2022-11-20T01:34:12;45.80;;;28.35;;
68315;SDS011;55508;54.368;18.406;2022-11-20T01:36:40;45.53;;;27.45;;
68315;SDS011;55508;54.368;18.406;2022-11-20T01:39:12;46.95;;;26.52;;
68315;SDS011;55508;54.368;18.406;2022-11-20T01:41:41;44.80;;;27.02;;
68315;SDS011;55508;54.368;18.406;2022-11-20T01:47:40;43.28;;;24.95;;
68315;SDS011;55508;54.368;18.406;2022-11-20T01:50:14;51.72;;;28.33;;
68315;SDS011;55508;54.368;18.406;2022-11-20T01:53:02;49.55;;;28.63;;
68315;SDS011;55508;54.368;18.406;2022-11-20T01:55:33;51.55;;;29.17;;
68315;SDS011;55508;54.368;18.406;2022-11-20T01:58:02;52.72;;;30.02;;
68315;SDS011;55508;54.368;18.406;2022-11-20T02:00:29;57.38;;;32.67;;
68315;SDS011;55508;54.368;18.406;2022-11-20T02:02:58;55.17;;;32.97;;
68315;SDS011;55508;54.368;18.406;2022-11-20T02:05:28;58.83;;;34.63;;
68315;SDS011;55508;54.368;18.406;2022-11-20T02:07:59;56.17;;;32.70;;
68315;SDS011;55508;54.368;18.406;2022-11-20T02:10:26;57.05;;;30.48;;
68315;SDS011;55508;54.368;18.406;2022-11-20T02:12:54;54.30;;;31.27;;
68315;SDS011;55508;54.368;18.406;2022-11-20T02:15:41;58.10;;;30.88;;
68315;SDS011;55508;54.368;18.406;2022-11-20T02:18:09;54.22;;;31.88;;
68315;SDS011;55508;54.368;18.406;2022-11-20T02:20:37;60.05;;;32.78;;
68315;SDS011;55508;54.368;18.406;2022-11-20T02:25:53;61.33;;;32.58;;
68315;SDS011;55508;54.368;18.406;2022-11-20T02:28:21;59.17;;;32.67;;
68315;SDS011;55508;54.368;18.406;2022-11-20T02:30:48;58.72;;;34.00;;
68315;SDS011;55508;54.368;18.406;2022-11-20T02:33:15;63.60;;;33.65;;
68315;SDS011;55508;54.368;18.406;2022-11-20T02:35:43;59.38;;;32.80;;
68315;SDS011;55508;54.368;18.406;2022-11-20T02:38:13;62.30;;;33.80;;
68315;SDS011;55508;54.368;18.406;2022-11-20T02:40:41;62.25;;;33.97;;
68315;SDS011;55508;54.368;18.406;2022-11-20T02:43:08;60.95;;;33.03;;
68315;SDS011;55508;54.368;18.406;2022-11-20T02:45:36;59.45;;;32.97;;
68315;SDS011;55508;54.368;18.406;2022-11-20T02:48:03;62.03;;;33.25;;
68315;SDS011;55508;54.368;18.406;2022-11-20T02:50:32;56.35;;;32.75;;
68315;SDS011;55508;54.368;18.406;2022-11-20T02:52:59;58.47;;;32.97;;
68315;SDS011;55508;54.368;18.406;2022-11-20T02:55:26;64.10;;;34.85;;
68315;SDS011;55508;54.368;18.406;2022-11-20T02:57:53;57.22;;;32.97;;
68315;SDS011;55508;54.368;18.406;2022-11-20T03:00:20;61.38;;;32.80;;
68315;SDS011;55508;54.368;18.406;2022-11-20T03:02:47;56.13;;;32.55;;
68315;SDS011;55508;54.368;18.406;2022-11-20T03:05:14;59.83;;;32.90;;
68315;SDS011;55508;54.368;18.406;2022-11-20T03:07:41;61.08;;;31.23;;
68315;SDS011;55508;54.368;18.406;2022-11-20T03:10:10;61.78;;;34.03;;
68315;SDS011;55508;54.368;18.406;2022-11-20T03:12:37;58.10;;;32.70;;
68315;SDS011;55508;54.368;18.406;2022-11-20T03:15:04;57.58;;;31.92;;
68315;SDS011;55508;54.368;18.406;2022-11-20T03:17:31;56.80;;;31.98;;
68315;SDS011;55508;54.368;18.406;2022-11-20T03:19:58;60.90;;;33.33;;
68315;SDS011;55508;54.368;18.406;2022-11-20T03:22:25;66.80;;;33.20;;
68315;SDS011;55508;54.368;18.406;2022-11-20T03:24:55;57.28;;;30.95;;
68315;SDS011;55508;54.368;18.406;2022-11-20T03:27:22;64.22;;;33.00;;
68315;SDS011;55508;54.368;18.406;2022-11-20T03:29:49;62.20;;;34.08;;
68315;SDS011;55508;54.368;18.406;2022-11-20T03:32:16;58.15;;;32.67;;
68315;SDS011;55508;54.368;18.406;2022-11-20T03:34:43;56.28;;;32.88;;
68315;SDS011;55508;54.368;18.406;2022-11-20T03:37:10;65.72;;;34.50;;
68315;SDS011;55508;54.368;18.406;2022-11-20T03:39:37;61.13;;;32.92;;
68315;SDS011;55508;54.368;18.406;2022-11-20T03:42:04;58.65;;;32.88;;
68315;SDS011;55508;54.368;18.406;2022-11-20T03:44:51;61.88;;;32.60;;
68315;SDS011;55508;54.368;18.406;2022-11-20T03:47:18;53.17;;;32.30;;
68315;SDS011;55508;54.368;18.406;2022-11-20T03:49:45;60.13;;;31.95;;
68315;SDS011;55508;54.368;18.406;2022-11-20T03:52:12;57.53;;;31.75;;
68315;SDS011;55508;54.368;18.406;2022-11-20T03:54:39;60.35;;;31.77;;
68315;SDS011;55508;54.368;18.406;2022-11-20T03:57:06;56.00;;;31.60;;
68315;SDS011;55508;54.368;18.406;2022-11-20T03:59:33;58.25;;;32.78;;
68315;SDS011;55508;54.368;18.406;2022-11-20T04:02:00;56.72;;;31.83;;
68315;SDS011;55508;54.368;18.406;2022-11-20T04:04:27;58.67;;;31.35;;
68315;SDS011;55508;54.368;18.406;2022-11-20T04:06:54;61.47;;;33.58;;
68315;SDS011;55508;54.368;18.406;2022-11-20T04:09:21;57.17;;;31.02;;
68315;SDS011;55508;54.368;18.406;2022-11-20T04:11:49;54.83;;;31.70;;
68315;SDS011;55508;54.368;18.406;2022-11-20T04:14:16;55.03;;;31.50;;
68315;SDS011;55508;54.368;18.406;2022-11-20T04:16:43;53.10;;;30.30;;
68315;SDS011;55508;54.368;18.406;2022-11-20T04:19:11;57.58;;;30.23;;
68315;SDS011;55508;54.368;18.406;2022-11-20T04:21:39;56.13;;;31.85;;
68315;SDS011;55508;54.368;18.406;2022-11-20T04:24:07;56.90;;;32.20;;
68315;SDS011;55508;54.368;18.406;2022-11-20T04:26:34;59.13;;;32.00;;
68315;SDS011;55508;54.368;18.406;2022-11-20T04:29:01;58.63;;;31.48;;
68315;SDS011;55508;54.368;18.406;2022-11-20T04:31:30;53.60;;;29.67;;
68315;SDS011;55508;54.368;18.406;2022-11-20T04:33:59;55.67;;;31.88;;
68315;SDS011;55508;54.368;18.406;2022-11-20T04:36:27;58.78;;;31.70;;
68315;SDS011;55508;54.368;18.406;2022-11-20T04:38:55;55.97;;;31.02;;
68315;SDS011;55508;54.368;18.406;2022-11-20T04:41:25;55.50;;;30.63;;
68315;SDS011;55508;54.368;18.406;2022-11-20T04:43:55;58.85;;;29.30;;
68315;SDS011;55508;54.368;18.406;2022-11-20T04:46:26;57.40;;;30.67;;
68315;SDS011;55508;54.368;18.406;2022-11-20T04:48:54;53.50;;;27.75;;
68315;SDS011;55508;54.368;18.406;2022-11-20T04:51:21;54.92;;;29.73;;
68315;SDS011;55508;54.368;18.406;2022-11-20T04:53:48;55.40;;;31.83;;
68315;SDS011;55508;54.368;18.406;2022-11-20T04:56:15;56.88;;;29.50;;
68315;SDS011;55508;54.368;18.406;2022-11-20T04:58:42;59.35;;;31.80;;
68315;SDS011;55508;54.368;18.406;2022-11-20T05:01:11;54.33;;;28.80;;
68315;SDS011;55508;54.368;18.406;2022-11-20T05:03:40;58.45;;;30.52;;
68315;SDS011;55508;54.368;18.406;2022-11-20T05:06:09;59.05;;;29.80;;
68315;SDS011;55508;54.368;18.406;2022-11-20T05:08:37;54.90;;;28.98;;
68315;SDS011;55508;54.368;18.406;2022-11-20T05:11:06;57.03;;;30.67;;
68315;SDS011;55508;54.368;18.406;2022-11-20T05:13:35;56.75;;;30.17;;
68315;SDS011;55508;54.368;18.406;2022-11-20T05:16:09;52.65;;;28.27;;
68315;SDS011;55508;54.368;18.406;2022-11-20T05:18:44;56.42;;;30.05;;
68315;SDS011;55508;54.368;18.406;2022-11-20T05:21:11;47.67;;;28.27;;
68315;SDS011;55508;54.368;18.406;2022-11-20T05:23:39;43.85;;;25.08;;
68315;SDS011;55508;54.368;18.406;2022-11-20T05:26:08;48.55;;;27.05;;
68315;SDS011;55508;54.368;18.406;2022-11-20T05:28:38;52.47;;;27.52;;
68315;SDS011;55508;54.368;18.406;2022-11-20T05:31:06;51.10;;;26.45;;
68315;SDS011;55508;54.368;18.406;2022-11-20T05:33:39;50.63;;;28.63;;
68315;SDS011;55508;54.368;18.406;2022-11-20T05:36:06;48.80;;;28.80;;
68315;SDS011;55508;54.368;18.406;2022-11-20T05:38:34;51.38;;;27.40;;
68315;SDS011;55508;54.368;18.406;2022-11-20T05:41:08;51.20;;;27.80;;
68315;SDS011;55508;54.368;18.406;2022-11-20T05:43:40;51.88;;;27.58;;
68315;SDS011;55508;54.368;18.406;2022-11-20T05:46:09;47.25;;;26.48;;
68315;SDS011;55508;54.368;18.406;2022-11-20T05:48:38;46.63;;;24.15;;
68315;SDS011;55508;54.368;18.406;2022-11-20T05:51:07;46.67;;;25.48;;
68315;SDS011;55508;54.368;18.406;2022-11-20T05:53:35;46.03;;;23.48;;
68315;SDS011;55508;54.368;18.406;2022-11-20T05:56:04;46.95;;;25.63;;
68315;SDS011;55508;54.368;18.406;2022-11-20T05:58:32;41.50;;;23.10;;
68315;SDS011;55508;54.368;18.406;2022-11-20T06:01:07;37.83;;;20.13;;
68315;SDS011;55508;54.368;18.406;2022-11-20T06:03:36;39.17;;;22.58;;
68315;SDS011;55508;54.368;18.406;2022-11-20T06:06:04;37.72;;;21.73;;
68315;SDS011;55508;54.368;18.406;2022-11-20T06:08:32;45.22;;;24.88;;
68315;SDS011;55508;54.368;18.406;2022-11-20T06:11:02;48.75;;;26.02;;
68315;SDS011;55508;54.368;18.406;2022-11-20T06:13:33;48.05;;;25.33;;
68315;SDS011;55508;54.368;18.406;2022-11-20T06:18:31;44.28;;;24.52;;
68315;SDS011;55508;54.368;18.406;2022-11-20T06:21:02;46.25;;;25.55;;
68315;SDS011;55508;54.368;18.406;2022-11-20T06:23:33;48.88;;;26.10;;
68315;SDS011;55508;54.368;18.406;2022-11-20T06:26:02;49.15;;;26.33;;
68315;SDS011;55508;54.368;18.406;2022-11-20T06:28:30;48.53;;;27.75;;
68315;SDS011;55508;54.368;18.406;2022-11-20T06:30:58;60.28;;;29.13;;
68315;SDS011;55508;54.368;18.406;2022-11-20T06:33:25;51.60;;;26.17;;
68315;SDS011;55508;54.368;18.406;2022-11-20T06:35:52;55.50;;;27.83;;
68315;SDS011;55508;54.368;18.406;2022-11-20T06:38:26;54.53;;;27.33;;
68315;SDS011;55508;54.368;18.406;2022-11-20T06:40:54;54.70;;;28.42;;
68315;SDS011;55508;54.368;18.406;2022-11-20T06:43:21;57.38;;;28.65;;
68315;SDS011;55508;54.368;18.406;2022-11-20T06:45:56;54.15;;;28.42;;
68315;SDS011;55508;54.368;18.406;2022-11-20T06:48:25;53.45;;;28.08;;
68315;SDS011;55508;54.368;18.406;2022-11-20T06:50:52;55.58;;;28.95;;
68315;SDS011;55508;54.368;18.406;2022-11-20T06:53:19;53.50;;;28.98;;
68315;SDS011;55508;54.368;18.406;2022-11-20T06:55:47;62.55;;;31.25;;
68315;SDS011;55508;54.368;18.406;2022-11-20T06:58:15;63.97;;;30.45;;
68315;SDS011;55508;54.368;18.406;2022-11-20T07:00:42;60.05;;;29.50;;
68315;SDS011;55508;54.368;18.406;2022-11-20T07:03:11;54.53;;;29.75;;
68315;SDS011;55508;54.368;18.406;2022-11-20T07:05:38;59.03;;;29.75;;
68315;SDS011;55508;54.368;18.406;2022-11-20T07:08:06;60.78;;;29.75;;
68315;SDS011;55508;54.368;18.406;2022-11-20T07:10:33;67.95;;;31.60;;
68315;SDS011;55508;54.368;18.406;2022-11-20T07:13:01;67.20;;;31.92;;
68315;SDS011;55508;54.368;18.406;2022-11-20T07:15:28;66.32;;;31.60;;
68315;SDS011;55508;54.368;18.406;2022-11-20T07:17:55;66.13;;;31.02;;
68315;SDS011;55508;54.368;18.406;2022-11-20T07:20:25;60.28;;;30.33;;
68315;SDS011;55508;54.368;18.406;2022-11-20T07:22:53;66.78;;;33.42;;
68315;SDS011;55508;54.368;18.406;2022-11-20T07:25:22;60.70;;;31.35;;
68315;SDS011;55508;54.368;18.406;2022-11-20T07:27:49;61.80;;;32.72;;
68315;SDS011;55508;54.368;18.406;2022-11-20T07:30:16;67.53;;;34.55;;
68315;SDS011;55508;54.368;18.406;2022-11-20T07:32:47;59.63;;;29.85;;
68315;SDS011;55508;54.368;18.406;2022-11-20T07:35:17;64.53;;;31.30;;
68315;SDS011;55508;54.368;18.406;2022-11-20T07:37:44;57.85;;;28.38;;
68315;SDS011;55508;54.368;18.406;2022-11-20T07:40:15;62.47;;;29.85;;
68315;SDS011;55508;54.368;18.406;2022-11-20T07:42:49;54.15;;;27.70;;
68315;SDS011;55508;54.368;18.406;2022-11-20T07:45:17;58.53;;;28.23;;
68315;SDS011;55508;54.368;18.406;2022-11-20T07:47:47;60.97;;;29.85;;
68315;SDS011;55508;54.368;18.406;2022-11-20T07:50:15;48.63;;;27.05;;
68315;SDS011;55508;54.368;18.406;2022-11-20T07:52:42;54.00;;;28.45;;
68315;SDS011;55508;54.368;18.406;2022-11-20T07:55:09;54.88;;;29.13;;
68315;SDS011;55508;54.368;18.406;2022-11-20T07:57:37;63.42;;;31.98;;
68315;SDS011;55508;54.368;18.406;2022-11-20T08:00:06;62.22;;;32.22;;
68315;SDS011;55508;54.368;18.406;2022-11-20T08:02:41;60.85;;;31.42;;
68315;SDS011;55508;54.368;18.406;2022-11-20T08:05:09;66.35;;;33.50;;
68315;SDS011;55508;54.368;18.406;2022-11-20T08:07:37;62.03;;;31.17;;
68315;SDS011;55508;54.368;18.406;2022-11-20T08:10:05;56.55;;;30.85;;
68315;SDS011;55508;54.368;18.406;2022-11-20T08:12:33;69.15;;;32.50;;
68315;SDS011;55508;54.368;18.406;2022-11-20T08:15:19;57.22;;;29.95;;
68315;SDS011;55508;54.368;18.406;2022-11-20T08:17:46;57.83;;;28.92;;
68315;SDS011;55508;54.368;18.406;2022-11-20T08:20:33;60.70;;;29.88;;
68315;SDS011;55508;54.368;18.406;2022-11-20T08:23:01;61.60;;;30.65;;
68315;SDS011;55508;54.368;18.406;2022-11-20T08:25:32;58.97;;;30.60;;
68315;SDS011;55508;54.368;18.406;2022-11-20T08:28:02;62.65;;;31.17;;
68315;SDS011;55508;54.368;18.406;2022-11-20T08:30:45;59.78;;;29.58;;
68315;SDS011;55508;54.368;18.406;2022-11-20T08:33:12;59.72;;;29.60;;
68315;SDS011;55508;54.368;18.406;2022-11-20T08:35:39;62.35;;;30.23;;
68315;SDS011;55508;54.368;18.406;2022-11-20T08:38:08;60.08;;;30.10;;
68315;SDS011;55508;54.368;18.406;2022-11-20T08:40:35;63.90;;;31.17;;
68315;SDS011;55508;54.368;18.406;2022-11-20T08:43:02;58.75;;;29.63;;
68315;SDS011;55508;54.368;18.406;2022-11-20T08:45:29;61.17;;;31.52;;
68315;SDS011;55508;54.368;18.406;2022-11-20T08:48:01;61.65;;;31.10;;
68315;SDS011;55508;54.368;18.406;2022-11-20T08:50:29;70.95;;;32.60;;
68315;SDS011;55508;54.368;18.406;2022-11-20T08:53:05;61.20;;;31.83;;
68315;SDS011;55508;54.368;18.406;2022-11-20T08:55:32;66.28;;;32.83;;
68315;SDS011;55508;54.368;18.406;2022-11-20T08:58:05;65.72;;;32.28;;
68315;SDS011;55508;54.368;18.406;2022-11-20T09:00:33;64.60;;;32.40;;
68315;SDS011;55508;54.368;18.406;2022-11-20T09:03:01;64.88;;;32.03;;
68315;SDS011;55508;54.368;18.406;2022-11-20T09:05:28;68.70;;;32.70;;
68315;SDS011;55508;54.368;18.406;2022-11-20T09:07:56;65.30;;;31.98;;
68315;SDS011;55508;54.368;18.406;2022-11-20T09:10:23;67.40;;;33.10;;
68315;SDS011;55508;54.368;18.406;2022-11-20T09:12:51;66.53;;;32.53;;
68315;SDS011;55508;54.368;18.406;2022-11-20T09:15:19;65.10;;;33.20;;
68315;SDS011;55508;54.368;18.406;2022-11-20T09:17:52;70.90;;;33.92;;
68315;SDS011;55508;54.368;18.406;2022-11-20T09:20:25;72.40;;;34.95;;
68315;SDS011;55508;54.368;18.406;2022-11-20T09:22:53;65.97;;;32.85;;
68315;SDS011;55508;54.368;18.406;2022-11-20T09:25:20;69.88;;;33.47;;
68315;SDS011;55508;54.368;18.406;2022-11-20T09:27:54;65.03;;;33.88;;
68315;SDS011;55508;54.368;18.406;2022-11-20T09:30:24;69.50;;;34.45;;
68315;SDS011;55508;54.368;18.406;2022-11-20T09:32:52;68.25;;;34.80;;
68315;SDS011;55508;54.368;18.406;2022-11-20T09:35:19;69.03;;;34.03;;
68315;SDS011;55508;54.368;18.406;2022-11-20T09:37:46;72.38;;;35.33;;
68315;SDS011;55508;54.368;18.406;2022-11-20T09:40:17;68.35;;;35.15;;
68315;SDS011;55508;54.368;18.406;2022-11-20T09:48:14;72.05;;;35.53;;
68315;SDS011;55508;54.368;18.406;2022-11-20T09:56:30;71.70;;;34.88;;
68315;SDS011;55508;54.368;18.406;2022-11-20T09:59:02;71.43;;;33.92;;
68315;SDS011;55508;54.368;18.406;2022-11-20T10:01:32;72.47;;;33.20;;
68315;SDS011;55508;54.368;18.406;2022-11-20T10:09:51;77.63;;;34.30;;
68315;SDS011;55508;54.368;18.406;2022-11-20T10:12:26;73.68;;;33.65;;
68315;SDS011;55508;54.368;18.406;2022-11-20T10:24:05;77.60;;;32.58;;
68315;SDS011;55508;54.368;18.406;2022-11-20T10:28:48;73.97;;;34.72;;
68315;SDS011;55508;54.368;18.406;2022-11-20T10:31:44;81.43;;;37.65;;
68315;SDS011;55508;54.368;18.406;2022-11-20T10:34:26;76.20;;;35.47;;
68315;SDS011;55508;54.368;18.406;2022-11-20T10:37:14;71.40;;;33.50;;
68315;SDS011;55508;54.368;18.406;2022-11-20T10:42:43;73.80;;;34.40;;
68315;SDS011;55508;54.368;18.406;2022-11-20T10:47:51;78.72;;;33.85;;
68315;SDS011;55508;54.368;18.406;2022-11-20T10:50:20;78.00;;;33.92;;
68315;SDS011;55508;54.368;18.406;2022-11-20T10:52:55;72.53;;;34.08;;
68315;SDS011;55508;54.368;18.406;2022-11-20T10:55:50;75.00;;;33.08;;
68315;SDS011;55508;54.368;18.406;2022-11-20T10:58:26;74.20;;;33.13;;
68315;SDS011;55508;54.368;18.406;2022-11-20T11:01:03;72.90;;;34.22;;
68315;SDS011;55508;54.368;18.406;2022-11-20T11:03:31;74.22;;;34.45;;
68315;SDS011;55508;54.368;18.406;2022-11-20T11:06:02;75.03;;;33.83;;
68315;SDS011;55508;54.368;18.406;2022-11-20T11:08:40;76.32;;;36.30;;
68315;SDS011;55508;54.368;18.406;2022-11-20T11:11:13;79.25;;;36.65;;
68315;SDS011;55508;54.368;18.406;2022-11-20T11:14:09;80.28;;;35.80;;
68315;SDS011;55508;54.368;18.406;2022-11-20T11:16:58;77.93;;;36.72;;
68315;SDS011;55508;54.368;18.406;2022-11-20T11:19:25;81.05;;;37.30;;
68315;SDS011;55508;54.368;18.406;2022-11-20T11:21:56;73.50;;;34.50;;
68315;SDS011;55508;54.368;18.406;2022-11-20T11:24:24;71.57;;;33.22;;
68315;SDS011;55508;54.368;18.406;2022-11-20T11:27:12;74.00;;;34.42;;
68315;SDS011;55508;54.368;18.406;2022-11-20T11:29:43;74.13;;;34.38;;
68315;SDS011;55508;54.368;18.406;2022-11-20T11:32:12;74.20;;;33.08;;
68315;SDS011;55508;54.368;18.406;2022-11-20T11:34:39;75.63;;;34.50;;
68315;SDS011;55508;54.368;18.406;2022-11-20T11:37:15;76.82;;;34.88;;
68315;SDS011;55508;54.368;18.406;2022-11-20T11:39:44;79.80;;;36.30;;
68315;SDS011;55508;54.368;18.406;2022-11-20T11:42:29;71.68;;;34.40;;
68315;SDS011;55508;54.368;18.406;2022-11-20T11:44:58;77.85;;;35.67;;
68315;SDS011;55508;54.368;18.406;2022-11-20T11:53:21;74.32;;;35.83;;
68315;SDS011;55508;54.368;18.406;2022-11-20T11:55:29;74.85;;;34.30;;
68315;SDS011;55508;54.368;18.406;2022-11-20T11:58:27;78.05;;;36.80;;
68315;SDS011;55508;54.368;18.406;2022-11-20T12:10:34;79.22;;;37.00;;
68315;SDS011;55508;54.368;18.406;2022-11-20T12:16:02;82.20;;;39.22;;
68315;SDS011;55508;54.368;18.406;2022-11-20T12:18:30;82.30;;;39.88;;
68315;SDS011;55508;54.368;18.406;2022-11-20T12:34:56;79.40;;;40.47;;
68315;SDS011;55508;54.368;18.406;2022-11-20T12:40:51;81.32;;;39.42;;
68315;SDS011;55508;54.368;18.406;2022-11-20T12:46:56;82.82;;;39.08;;
68315;SDS011;55508;54.368;18.406;2022-11-20T12:49:48;77.43;;;40.10;;
68315;SDS011;55508;54.368;18.406;2022-11-20T12:52:29;78.00;;;39.90;;
68315;SDS011;55508;54.368;18.406;2022-11-20T13:00:56;74.80;;;37.95;;
68315;SDS011;55508;54.368;18.406;2022-11-20T13:04:00;77.18;;;39.45;;
68315;SDS011;55508;54.368;18.406;2022-11-20T13:06:20;75.05;;;37.95;;
68315;SDS011;55508;54.368;18.406;2022-11-20T13:08:49;78.20;;;38.85;;
68315;SDS011;55508;54.368;18.406;2022-11-20T13:16:29;78.38;;;40.55;;
68315;SDS011;55508;54.368;18.406;2022-11-20T13:19:17;89.63;;;43.53;;
68315;SDS011;55508;54.368;18.406;2022-11-20T13:21:46;77.50;;;38.47;;
68315;SDS011;55508;54.368;18.406;2022-11-20T13:26:46;73.70;;;36.63;;
68315;SDS011;55508;54.368;18.406;2022-11-20T13:29:17;69.80;;;36.25;;
68315;SDS011;55508;54.368;18.406;2022-11-20T13:31:46;76.57;;;37.55;;
68315;SDS011;55508;54.368;18.406;2022-11-20T13:34:22;77.13;;;38.88;;
68315;SDS011;55508;54.368;18.406;2022-11-20T13:36:52;70.53;;;37.67;;
68315;SDS011;55508;54.368;18.406;2022-11-20T13:39:33;69.20;;;35.60;;
68315;SDS011;55508;54.368;18.406;2022-11-20T13:42:02;73.20;;;34.90;;
68315;SDS011;55508;54.368;18.406;2022-11-20T13:44:51;69.28;;;34.80;;
68315;SDS011;55508;54.368;18.406;2022-11-20T13:47:21;69.90;;;37.55;;
68315;SDS011;55508;54.368;18.406;2022-11-20T13:49:50;67.10;;;34.58;;
68315;SDS011;55508;54.368;18.406;2022-11-20T14:00:29;75.72;;;34.58;;
68315;SDS011;55508;54.368;18.406;2022-11-20T14:05:34;75.10;;;35.83;;
68315;SDS011;55508;54.368;18.406;2022-11-20T14:08:06;78.00;;;37.75;;
68315;SDS011;55508;54.368;18.406;2022-11-20T14:10:41;75.35;;;37.80;;
68315;SDS011;55508;54.368;18.406;2022-11-20T14:13:26;79.53;;;38.58;;
68315;SDS011;55508;54.368;18.406;2022-11-20T14:15:56;76.72;;;37.28;;
68315;SDS011;55508;54.368;18.406;2022-11-20T14:18:25;63.80;;;32.05;;
68315;SDS011;55508;54.368;18.406;2022-11-20T14:20:53;77.95;;;37.75;;
68315;SDS011;55508;54.368;18.406;2022-11-20T14:23:23;82.05;;;39.53;;
68315;SDS011;55508;54.368;18.406;2022-11-20T14:25:55;76.20;;;38.83;;
68315;SDS011;55508;54.368;18.406;2022-11-20T14:28:26;80.97;;;39.13;;
68315;SDS011;55508;54.368;18.406;2022-11-20T14:30:56;78.63;;;37.85;;
68315;SDS011;55508;54.368;18.406;2022-11-20T14:33:23;79.13;;;37.85;;
68315;SDS011;55508;54.368;18.406;2022-11-20T14:35:52;79.85;;;38.58;;
68315;SDS011;55508;54.368;18.406;2022-11-20T14:38:22;78.22;;;38.85;;
68315;SDS011;55508;54.368;18.406;2022-11-20T14:41:09;77.65;;;38.17;;
68315;SDS011;55508;54.368;18.406;2022-11-20T14:43:56;77.97;;;36.25;;
68315;SDS011;55508;54.368;18.406;2022-11-20T14:46:24;71.85;;;36.92;;
68315;SDS011;55508;54.368;18.406;2022-11-20T14:48:53;77.32;;;37.80;;
68315;SDS011;55508;54.368;18.406;2022-11-20T14:56:59;78.60;;;37.85;;
68315;SDS011;55508;54.368;18.406;2022-11-20T14:59:31;75.60;;;36.93;;
68315;SDS011;55508;54.368;18.406;2022-11-20T15:02:03;80.25;;;38.65;;
68315;SDS011;55508;54.368;18.406;2022-11-20T15:04:32;80.90;;;39.63;;
68315;SDS011;55508;54.368;18.406;2022-11-20T15:06:59;80.28;;;40.70;;
68315;SDS011;55508;54.368;18.406;2022-11-20T15:09:26;38.22;;;21.50;;
68315;SDS011;55508;54.368;18.406;2022-11-20T15:14:24;75.70;;;40.47;;
68315;SDS011;55508;54.368;18.406;2022-11-20T15:16:51;76.78;;;39.88;;
68315;SDS011;55508;54.368;18.406;2022-11-20T15:19:23;73.78;;;40.30;;
68315;SDS011;55508;54.368;18.406;2022-11-20T15:21:51;76.07;;;39.80;;
68315;SDS011;55508;54.368;18.406;2022-11-20T15:24:19;77.30;;;41.50;;
68315;SDS011;55508;54.368;18.406;2022-11-20T15:26:47;73.00;;;39.45;;
68315;SDS011;55508;54.368;18.406;2022-11-20T15:29:15;74.97;;;39.83;;
68315;SDS011;55508;54.368;18.406;2022-11-20T15:31:45;79.18;;;42.33;;
68315;SDS011;55508;54.368;18.406;2022-11-20T15:34:14;84.55;;;43.33;;
68315;SDS011;55508;54.368;18.406;2022-11-20T15:36:42;82.85;;;42.58;;
68315;SDS011;55508;54.368;18.406;2022-11-20T15:39:09;88.18;;;42.67;;
68315;SDS011;55508;54.368;18.406;2022-11-20T15:41:38;87.80;;;44.80;;
68315;SDS011;55508;54.368;18.406;2022-11-20T15:44:05;92.70;;;45.47;;
68315;SDS011;55508;54.368;18.406;2022-11-20T15:46:33;91.97;;;45.47;;
68315;SDS011;55508;54.368;18.406;2022-11-20T15:49:08;93.38;;;45.85;;
68315;SDS011;55508;54.368;18.406;2022-11-20T15:51:39;93.65;;;45.22;;
68315;SDS011;55508;54.368;18.406;2022-11-20T15:54:12;87.63;;;43.67;;
68315;SDS011;55508;54.368;18.406;2022-11-20T15:56:47;82.97;;;41.90;;
68315;SDS011;55508;54.368;18.406;2022-11-20T15:59:15;94.20;;;46.97;;
68315;SDS011;55508;54.368;18.406;2022-11-20T16:01:42;88.85;;;42.90;;
68315;SDS011;55508;54.368;18.406;2022-11-20T16:04:13;89.03;;;44.30;;
68315;SDS011;55508;54.368;18.406;2022-11-20T16:06:42;86.20;;;41.72;;
68315;SDS011;55508;54.368;18.406;2022-11-20T16:09:09;91.50;;;44.22;;
68315;SDS011;55508;54.368;18.406;2022-11-20T16:11:37;85.70;;;42.05;;
68315;SDS011;55508;54.368;18.406;2022-11-20T16:14:10;89.87;;;43.73;;
68315;SDS011;55508;54.368;18.406;2022-11-20T16:16:59;85.25;;;42.08;;
68315;SDS011;55508;54.368;18.406;2022-11-20T16:19:29;84.97;;;42.40;;
68315;SDS011;55508;54.368;18.406;2022-11-20T16:21:57;88.03;;;43.15;;